sensor_id;sensor_type;location;lat;lon;timestamp;P1;durP1;ratioP1;P2;durP2;ratioP2
18677;SDS011;9469;51.114;13.914;2022-10-31T00:04:27;27.40;;;16.53;;
18677;SDS011;9469;51.114;13.914;2022-10-31T00:09:35;28.00;;;16.03;;
18677;SDS011;9469;51.114;13.914;2022-10-31T00:14:39;32.10;;;15.90;;
18677;SDS011;9469;51.114;13.914;2022-10-31T00:19:44;27.23;;;15.17;;
18677;SDS011;9469;51.114;13.914;2022-10-31T00:24:52;23.70;;;15.43;;
18677;SDS011;9469;51.114;13.914;2022-10-31T00:29:56;24.07;;;14.27;;
18677;SDS011;9469;51.114;13.914;2022-10-31T00:35:01;26.03;;;16.13;;
18677;SDS011;9469;51.114;13.914;2022-10-31T00:40:12;28.40;;;17.17;;
18677;SDS011;9469;51.114;13.914;2022-10-31T00:45:16;29.43;;;16.47;;
18677;SDS011;9469;51.114;13.914;2022-10-31T00:50:21;21.17;;;15.43;;
18677;SDS011;9469;51.114;13.914;2022-10-31T00:55:29;23.47;;;15.73;;
18677;SDS011;9469;51.114;13.914;2022-10-31T01:00:34;25.13;;;16.03;;
18677;SDS011;9469;51.114;13.914;2022-10-31T01:05:39;27.50;;;15.70;;
18677;SDS011;9469;51.114;13.914;2022-10-31T01:10:57;27.67;;;15.77;;
18677;SDS011;9469;51.114;13.914;2022-10-31T01:16:10;23.93;;;14.83;;
18677;SDS011;9469;51.114;13.914;2022-10-31T01:21:18;26.33;;;15.27;;
18677;SDS011;9469;51.114;13.914;2022-10-31T01:26:27;24.07;;;15.13;;
18677;SDS011;9469;51.114;13.914;2022-10-31T01:31:34;26.13;;;15.60;;
18677;SDS011;9469;51.114;13.914;2022-10-31T01:36:40;27.70;;;13.50;;
18677;SDS011;9469;51.114;13.914;2022-10-31T01:41:49;26.53;;;15.07;;
18677;SDS011;9469;51.114;13.914;2022-10-31T01:46:56;30.53;;;15.10;;
18677;SDS011;9469;51.114;13.914;2022-10-31T01:52:09;29.07;;;14.73;;
18677;SDS011;9469;51.114;13.914;2022-10-31T01:57:20;22.27;;;14.73;;
18677;SDS011;9469;51.114;13.914;2022-10-31T02:02:26;22.23;;;14.47;;
18677;SDS011;9469;51.114;13.914;2022-10-31T02:07:36;23.80;;;13.73;;
18677;SDS011;9469;51.114;13.914;2022-10-31T02:12:49;25.10;;;13.77;;
18677;SDS011;9469;51.114;13.914;2022-10-31T02:17:56;23.53;;;16.30;;
18677;SDS011;9469;51.114;13.914;2022-10-31T02:28:48;20.83;;;13.53;;
18677;SDS011;9469;51.114;13.914;2022-10-31T02:34:14;24.27;;;14.87;;
18677;SDS011;9469;51.114;13.914;2022-10-31T02:39:24;23.80;;;15.20;;
18677;SDS011;9469;51.114;13.914;2022-10-31T02:44:36;22.37;;;13.77;;
18677;SDS011;9469;51.114;13.914;2022-10-31T02:49:48;25.17;;;14.73;;
18677;SDS011;9469;51.114;13.914;2022-10-31T02:54:57;21.80;;;14.50;;
18677;SDS011;9469;51.114;13.914;2022-10-31T03:00:04;20.57;;;13.10;;
18677;SDS011;9469;51.114;13.914;2022-10-31T03:05:14;18.57;;;12.07;;
18677;SDS011;9469;51.114;13.914;2022-10-31T03:10:42;20.63;;;12.97;;
18677;SDS011;9469;51.114;13.914;2022-10-31T03:15:53;19.20;;;13.33;;
18677;SDS011;9469;51.114;13.914;2022-10-31T03:21:08;19.23;;;12.70;;
18677;SDS011;9469;51.114;13.914;2022-10-31T03:26:16;22.37;;;11.43;;
18677;SDS011;9469;51.114;13.914;2022-10-31T03:31:25;21.90;;;12.77;;
18677;SDS011;9469;51.114;13.914;2022-10-31T03:36:37;22.53;;;12.30;;
18677;SDS011;9469;51.114;13.914;2022-10-31T03:41:45;20.83;;;11.90;;
18677;SDS011;9469;51.114;13.914;2022-10-31T03:46:55;20.77;;;12.30;;
18677;SDS011;9469;51.114;13.914;2022-10-31T03:52:06;19.07;;;12.43;;
18677;SDS011;9469;51.114;13.914;2022-10-31T03:57:21;26.37;;;12.03;;
18677;SDS011;9469;51.114;13.914;2022-10-31T04:02:32;18.73;;;12.00;;
18677;SDS011;9469;51.114;13.914;2022-10-31T04:07:45;17.73;;;11.03;;
18677;SDS011;9469;51.114;13.914;2022-10-31T04:12:56;17.03;;;11.43;;
18677;SDS011;9469;51.114;13.914;2022-10-31T04:18:16;20.13;;;10.77;;
18677;SDS011;9469;51.114;13.914;2022-10-31T04:23:25;18.80;;;11.43;;
18677;SDS011;9469;51.114;13.914;2022-10-31T04:28:30;17.63;;;11.07;;
18677;SDS011;9469;51.114;13.914;2022-10-31T04:33:36;18.03;;;11.00;;
18677;SDS011;9469;51.114;13.914;2022-10-31T04:38:44;14.17;;;10.03;;
18677;SDS011;9469;51.114;13.914;2022-10-31T04:44:09;20.87;;;11.33;;
18677;SDS011;9469;51.114;13.914;2022-10-31T04:49:14;16.93;;;10.70;;
18677;SDS011;9469;51.114;13.914;2022-10-31T04:54:21;16.70;;;10.87;;
18677;SDS011;9469;51.114;13.914;2022-10-31T04:59:49;15.00;;;10.43;;
18677;SDS011;9469;51.114;13.914;2022-10-31T05:04:57;14.07;;;10.70;;
18677;SDS011;9469;51.114;13.914;2022-10-31T05:10:05;16.27;;;10.33;;
18677;SDS011;9469;51.114;13.914;2022-10-31T05:15:12;14.67;;;10.87;;
18677;SDS011;9469;51.114;13.914;2022-10-31T05:20:50;16.40;;;9.43;;
18677;SDS011;9469;51.114;13.914;2022-10-31T05:26:21;18.47;;;10.17;;
18677;SDS011;9469;51.114;13.914;2022-10-31T05:31:27;16.53;;;10.23;;
18677;SDS011;9469;51.114;13.914;2022-10-31T05:36:32;13.97;;;9.50;;
18677;SDS011;9469;51.114;13.914;2022-10-31T05:41:47;15.70;;;9.70;;
18677;SDS011;9469;51.114;13.914;2022-10-31T05:46:59;13.63;;;9.43;;
18677;SDS011;9469;51.114;13.914;2022-10-31T05:52:22;13.13;;;9.50;;
18677;SDS011;9469;51.114;13.914;2022-10-31T05:57:38;16.20;;;9.60;;
18677;SDS011;9469;51.114;13.914;2022-10-31T06:02:46;19.00;;;11.07;;
18677;SDS011;9469;51.114;13.914;2022-10-31T06:08:10;15.93;;;9.80;;
18677;SDS011;9469;51.114;13.914;2022-10-31T06:13:19;16.80;;;10.30;;
18677;SDS011;9469;51.114;13.914;2022-10-31T06:18:40;16.83;;;9.60;;
18677;SDS011;9469;51.114;13.914;2022-10-31T06:23:46;14.20;;;8.83;;
18677;SDS011;9469;51.114;13.914;2022-10-31T06:29:20;14.67;;;9.83;;
18677;SDS011;9469;51.114;13.914;2022-10-31T06:34:35;14.07;;;8.70;;
18677;SDS011;9469;51.114;13.914;2022-10-31T06:39:40;15.60;;;8.83;;
18677;SDS011;9469;51.114;13.914;2022-10-31T06:44:53;13.53;;;9.67;;
18677;SDS011;9469;51.114;13.914;2022-10-31T06:50:21;12.27;;;9.63;;
18677;SDS011;9469;51.114;13.914;2022-10-31T06:55:27;18.40;;;9.50;;
18677;SDS011;9469;51.114;13.914;2022-10-31T07:00:36;14.60;;;9.17;;
18677;SDS011;9469;51.114;13.914;2022-10-31T07:05:42;13.73;;;9.00;;
18677;SDS011;9469;51.114;13.914;2022-10-31T07:10:51;19.00;;;10.03;;
18677;SDS011;9469;51.114;13.914;2022-10-31T07:16:05;15.20;;;9.30;;
18677;SDS011;9469;51.114;13.914;2022-10-31T07:21:19;16.17;;;9.63;;
18677;SDS011;9469;51.114;13.914;2022-10-31T07:26:25;17.40;;;9.47;;
18677;SDS011;9469;51.114;13.914;2022-10-31T07:31:33;18.40;;;10.33;;
18677;SDS011;9469;51.114;13.914;2022-10-31T07:36:45;18.43;;;10.37;;
18677;SDS011;9469;51.114;13.914;2022-10-31T07:41:50;12.73;;;9.90;;
18677;SDS011;9469;51.114;13.914;2022-10-31T07:46:58;15.73;;;9.77;;
18677;SDS011;9469;51.114;13.914;2022-10-31T07:52:21;14.20;;;9.60;;
18677;SDS011;9469;51.114;13.914;2022-10-31T07:57:56;12.40;;;9.47;;
18677;SDS011;9469;51.114;13.914;2022-10-31T08:03:06;16.63;;;8.17;;
18677;SDS011;9469;51.114;13.914;2022-10-31T08:08:31;12.87;;;8.77;;
18677;SDS011;9469;51.114;13.914;2022-10-31T08:13:40;15.63;;;8.97;;
18677;SDS011;9469;51.114;13.914;2022-10-31T08:18:52;15.90;;;8.60;;
18677;SDS011;9469;51.114;13.914;2022-10-31T08:24:01;12.20;;;7.27;;
18677;SDS011;9469;51.114;13.914;2022-10-31T08:29:07;10.17;;;6.90;;
18677;SDS011;9469;51.114;13.914;2022-10-31T08:34:19;13.77;;;7.53;;
18677;SDS011;9469;51.114;13.914;2022-10-31T08:39:43;13.20;;;7.17;;
18677;SDS011;9469;51.114;13.914;2022-10-31T08:44:49;9.53;;;6.10;;
18677;SDS011;9469;51.114;13.914;2022-10-31T08:49:58;12.20;;;7.30;;
18677;SDS011;9469;51.114;13.914;2022-10-31T08:55:04;16.73;;;6.47;;
18677;SDS011;9469;51.114;13.914;2022-10-31T09:00:28;9.80;;;5.93;;
18677;SDS011;9469;51.114;13.914;2022-10-31T09:05:41;12.20;;;6.43;;
18677;SDS011;9469;51.114;13.914;2022-10-31T09:10:48;11.57;;;5.90;;
18677;SDS011;9469;51.114;13.914;2022-10-31T09:16:11;12.43;;;6.10;;
18677;SDS011;9469;51.114;13.914;2022-10-31T09:21:18;10.43;;;4.90;;
18677;SDS011;9469;51.114;13.914;2022-10-31T09:26:23;7.27;;;4.37;;
18677;SDS011;9469;51.114;13.914;2022-10-31T09:31:49;11.07;;;4.47;;
18677;SDS011;9469;51.114;13.914;2022-10-31T09:37:06;10.43;;;4.85;;
18677;SDS011;9469;51.114;13.914;2022-10-31T09:42:20;10.45;;;4.53;;
18677;SDS011;9469;51.114;13.914;2022-10-31T09:47:56;12.05;;;5.35;;
18677;SDS011;9469;51.114;13.914;2022-10-31T09:53:16;14.23;;;6.82;;
18677;SDS011;9469;51.114;13.914;2022-10-31T09:58:33;11.32;;;5.82;;
18677;SDS011;9469;51.114;13.914;2022-10-31T10:03:44;11.82;;;5.25;;
18677;SDS011;9469;51.114;13.914;2022-10-31T10:09:21;12.48;;;6.93;;
18677;SDS011;9469;51.114;13.914;2022-10-31T10:15:04;13.30;;;5.97;;
18677;SDS011;9469;51.114;13.914;2022-10-31T10:20:28;12.65;;;6.55;;
18677;SDS011;9469;51.114;13.914;2022-10-31T10:25:43;13.18;;;5.78;;
18677;SDS011;9469;51.114;13.914;2022-10-31T10:30:54;13.55;;;6.82;;
18677;SDS011;9469;51.114;13.914;2022-10-31T10:36:05;16.70;;;6.40;;
18677;SDS011;9469;51.114;13.914;2022-10-31T10:41:19;13.50;;;5.35;;
18677;SDS011;9469;51.114;13.914;2022-10-31T10:46:32;12.45;;;5.90;;
18677;SDS011;9469;51.114;13.914;2022-10-31T10:51:59;11.60;;;5.90;;
18677;SDS011;9469;51.114;13.914;2022-10-31T10:57:38;10.30;;;6.03;;
18677;SDS011;9469;51.114;13.914;2022-10-31T11:02:55;14.55;;;5.40;;
18677;SDS011;9469;51.114;13.914;2022-10-31T11:08:02;9.73;;;4.73;;
18677;SDS011;9469;51.114;13.914;2022-10-31T11:13:20;11.93;;;5.03;;
18677;SDS011;9469;51.114;13.914;2022-10-31T11:18:29;15.85;;;5.45;;
18677;SDS011;9469;51.114;13.914;2022-10-31T11:23:35;9.30;;;5.30;;
18677;SDS011;9469;51.114;13.914;2022-10-31T11:28:42;13.70;;;5.28;;
18677;SDS011;9469;51.114;13.914;2022-10-31T11:33:48;10.93;;;5.47;;
18677;SDS011;9469;51.114;13.914;2022-10-31T11:39:03;11.45;;;5.28;;
18677;SDS011;9469;51.114;13.914;2022-10-31T11:44:14;9.63;;;4.95;;
18677;SDS011;9469;51.114;13.914;2022-10-31T11:49:24;9.93;;;5.00;;
18677;SDS011;9469;51.114;13.914;2022-10-31T11:54:35;14.25;;;5.10;;
18677;SDS011;9469;51.114;13.914;2022-10-31T11:59:50;8.13;;;5.13;;
18677;SDS011;9469;51.114;13.914;2022-10-31T12:04:58;11.68;;;4.53;;
18677;SDS011;9469;51.114;13.914;2022-10-31T12:10:09;11.57;;;5.45;;
18677;SDS011;9469;51.114;13.914;2022-10-31T12:20:52;12.73;;;5.28;;
18677;SDS011;9469;51.114;13.914;2022-10-31T12:26:08;11.65;;;5.97;;
18677;SDS011;9469;51.114;13.914;2022-10-31T12:31:28;17.58;;;5.88;;
18677;SDS011;9469;51.114;13.914;2022-10-31T12:36:41;11.40;;;6.05;;
18677;SDS011;9469;51.114;13.914;2022-10-31T12:41:56;12.75;;;5.65;;
18677;SDS011;9469;51.114;13.914;2022-10-31T12:47:20;10.38;;;6.03;;
18677;SDS011;9469;51.114;13.914;2022-10-31T12:52:51;13.48;;;5.53;;
18677;SDS011;9469;51.114;13.914;2022-10-31T12:58:06;11.13;;;5.53;;
18677;SDS011;9469;51.114;13.914;2022-10-31T13:03:21;13.75;;;5.32;;
18677;SDS011;9469;51.114;13.914;2022-10-31T13:08:40;13.75;;;5.25;;
18677;SDS011;9469;51.114;13.914;2022-10-31T13:13:52;13.70;;;5.10;;
18677;SDS011;9469;51.114;13.914;2022-10-31T13:19:05;8.50;;;5.00;;
18677;SDS011;9469;51.114;13.914;2022-10-31T13:24:19;11.35;;;5.30;;
18677;SDS011;9469;51.114;13.914;2022-10-31T13:29:29;8.93;;;4.88;;
18677;SDS011;9469;51.114;13.914;2022-10-31T13:34:41;13.93;;;5.10;;
18677;SDS011;9469;51.114;13.914;2022-10-31T13:39:55;9.82;;;4.70;;
18677;SDS011;9469;51.114;13.914;2022-10-31T13:45:12;10.15;;;5.03;;
18677;SDS011;9469;51.114;13.914;2022-10-31T13:50:22;13.93;;;4.70;;
18677;SDS011;9469;51.114;13.914;2022-10-31T13:55:41;9.85;;;4.38;;
18677;SDS011;9469;51.114;13.914;2022-10-31T14:00:57;12.85;;;5.35;;
18677;SDS011;9469;51.114;13.914;2022-10-31T14:06:07;12.60;;;4.50;;
18677;SDS011;9469;51.114;13.914;2022-10-31T14:11:17;8.98;;;4.05;;
18677;SDS011;9469;51.114;13.914;2022-10-31T14:16:42;11.02;;;4.68;;
18677;SDS011;9469;51.114;13.914;2022-10-31T14:21:57;12.53;;;4.60;;
18677;SDS011;9469;51.114;13.914;2022-10-31T14:27:04;17.08;;;5.50;;
18677;SDS011;9469;51.114;13.914;2022-10-31T14:32:25;12.47;;;4.70;;
18677;SDS011;9469;51.114;13.914;2022-10-31T14:37:37;10.30;;;4.10;;
18677;SDS011;9469;51.114;13.914;2022-10-31T14:43:02;11.83;;;4.63;;
18677;SDS011;9469;51.114;13.914;2022-10-31T14:48:34;9.27;;;4.30;;
18677;SDS011;9469;51.114;13.914;2022-10-31T14:53:57;11.13;;;5.00;;
18677;SDS011;9469;51.114;13.914;2022-10-31T14:59:06;10.27;;;5.33;;
18677;SDS011;9469;51.114;13.914;2022-10-31T15:04:21;15.60;;;6.23;;
18677;SDS011;9469;51.114;13.914;2022-10-31T15:09:32;12.83;;;5.57;;
18677;SDS011;9469;51.114;13.914;2022-10-31T15:14:42;12.90;;;5.90;;
18677;SDS011;9469;51.114;13.914;2022-10-31T15:19:49;11.97;;;6.17;;
18677;SDS011;9469;51.114;13.914;2022-10-31T15:24:58;14.23;;;6.67;;
18677;SDS011;9469;51.114;13.914;2022-10-31T15:30:15;8.07;;;5.10;;
18677;SDS011;9469;51.114;13.914;2022-10-31T15:35:24;13.23;;;5.50;;
18677;SDS011;9469;51.114;13.914;2022-10-31T15:40:36;11.30;;;6.53;;
18677;SDS011;9469;51.114;13.914;2022-10-31T15:45:41;10.77;;;6.17;;
18677;SDS011;9469;51.114;13.914;2022-10-31T15:50:50;9.10;;;6.90;;
18677;SDS011;9469;51.114;13.914;2022-10-31T15:56:00;14.67;;;9.13;;
18677;SDS011;9469;51.114;13.914;2022-10-31T16:01:19;16.57;;;10.77;;
18677;SDS011;9469;51.114;13.914;2022-10-31T16:06:26;23.50;;;16.57;;
18677;SDS011;9469;51.114;13.914;2022-10-31T16:11:37;25.70;;;17.37;;
18677;SDS011;9469;51.114;13.914;2022-10-31T16:16:45;39.50;;;27.17;;
18677;SDS011;9469;51.114;13.914;2022-10-31T16:21:54;40.47;;;24.47;;
18677;SDS011;9469;51.114;13.914;2022-10-31T16:27:17;26.20;;;18.13;;
18677;SDS011;9469;51.114;13.914;2022-10-31T16:32:28;30.13;;;16.73;;
18677;SDS011;9469;51.114;13.914;2022-10-31T16:37:40;22.83;;;12.87;;
18677;SDS011;9469;51.114;13.914;2022-10-31T16:42:50;22.63;;;12.37;;
18677;SDS011;9469;51.114;13.914;2022-10-31T16:48:01;20.97;;;12.70;;
18677;SDS011;9469;51.114;13.914;2022-10-31T16:53:08;23.90;;;13.43;;
18677;SDS011;9469;51.114;13.914;2022-10-31T16:58:20;33.90;;;16.50;;
18677;SDS011;9469;51.114;13.914;2022-10-31T17:03:27;21.20;;;13.70;;
18677;SDS011;9469;51.114;13.914;2022-10-31T17:08:32;27.90;;;16.40;;
18677;SDS011;9469;51.114;13.914;2022-10-31T17:13:40;23.03;;;13.80;;
18677;SDS011;9469;51.114;13.914;2022-10-31T17:18:45;22.10;;;12.67;;
18677;SDS011;9469;51.114;13.914;2022-10-31T17:23:50;24.67;;;15.53;;
18677;SDS011;9469;51.114;13.914;2022-10-31T17:29:00;22.97;;;14.13;;
18677;SDS011;9469;51.114;13.914;2022-10-31T17:34:05;23.57;;;13.30;;
18677;SDS011;9469;51.114;13.914;2022-10-31T17:39:10;22.93;;;14.93;;
18677;SDS011;9469;51.114;13.914;2022-10-31T17:44:18;23.37;;;11.93;;
18677;SDS011;9469;51.114;13.914;2022-10-31T17:49:23;18.57;;;9.77;;
18677;SDS011;9469;51.114;13.914;2022-10-31T17:54:28;16.43;;;10.97;;
18677;SDS011;9469;51.114;13.914;2022-10-31T17:59:36;24.33;;;14.60;;
18677;SDS011;9469;51.114;13.914;2022-10-31T18:04:42;28.13;;;15.80;;
18677;SDS011;9469;51.114;13.914;2022-10-31T18:09:47;25.07;;;15.70;;
18677;SDS011;9469;51.114;13.914;2022-10-31T18:15:02;21.43;;;12.90;;
18677;SDS011;9469;51.114;13.914;2022-10-31T18:20:09;24.80;;;13.00;;
18677;SDS011;9469;51.114;13.914;2022-10-31T18:25:14;26.57;;;15.67;;
18677;SDS011;9469;51.114;13.914;2022-10-31T18:30:22;22.77;;;14.97;;
18677;SDS011;9469;51.114;13.914;2022-10-31T18:35:29;28.80;;;15.63;;
18677;SDS011;9469;51.114;13.914;2022-10-31T18:40:34;28.17;;;16.07;;
18677;SDS011;9469;51.114;13.914;2022-10-31T18:45:42;25.87;;;15.43;;
18677;SDS011;9469;51.114;13.914;2022-10-31T18:50:51;23.83;;;14.67;;
18677;SDS011;9469;51.114;13.914;2022-10-31T18:56:01;24.90;;;13.93;;
18677;SDS011;9469;51.114;13.914;2022-10-31T19:01:13;25.93;;;14.60;;
18677;SDS011;9469;51.114;13.914;2022-10-31T19:06:20;49.13;;;33.83;;
18677;SDS011;9469;51.114;13.914;2022-10-31T19:11:26;36.60;;;24.87;;
18677;SDS011;9469;51.114;13.914;2022-10-31T19:16:34;22.50;;;17.93;;
18677;SDS011;9469;51.114;13.914;2022-10-31T19:21:40;25.03;;;15.20;;
18677;SDS011;9469;51.114;13.914;2022-10-31T19:26:46;25.07;;;14.87;;
18677;SDS011;9469;51.114;13.914;2022-10-31T19:31:56;23.07;;;14.40;;
18677;SDS011;9469;51.114;13.914;2022-10-31T19:37:01;21.30;;;13.77;;
18677;SDS011;9469;51.114;13.914;2022-10-31T19:42:08;27.73;;;17.80;;
18677;SDS011;9469;51.114;13.914;2022-10-31T19:47:19;23.97;;;15.13;;
18677;SDS011;9469;51.114;13.914;2022-10-31T19:52:32;22.90;;;14.70;;
18677;SDS011;9469;51.114;13.914;2022-10-31T19:57:39;27.27;;;15.27;;
18677;SDS011;9469;51.114;13.914;2022-10-31T20:03:05;24.37;;;15.00;;
18677;SDS011;9469;51.114;13.914;2022-10-31T20:08:12;28.90;;;15.87;;
18677;SDS011;9469;51.114;13.914;2022-10-31T20:13:18;29.03;;;15.77;;
18677;SDS011;9469;51.114;13.914;2022-10-31T20:18:26;23.47;;;15.13;;
18677;SDS011;9469;51.114;13.914;2022-10-31T20:23:31;28.83;;;15.30;;
18677;SDS011;9469;51.114;13.914;2022-10-31T20:28:37;29.27;;;15.40;;
18677;SDS011;9469;51.114;13.914;2022-10-31T20:33:47;25.73;;;15.33;;
18677;SDS011;9469;51.114;13.914;2022-10-31T20:38:53;22.50;;;15.20;;
18677;SDS011;9469;51.114;13.914;2022-10-31T20:43:57;22.50;;;14.83;;
18677;SDS011;9469;51.114;13.914;2022-10-31T20:49:05;28.07;;;14.60;;
18677;SDS011;9469;51.114;13.914;2022-10-31T20:54:11;28.83;;;14.80;;
18677;SDS011;9469;51.114;13.914;2022-10-31T20:59:20;28.07;;;14.17;;
18677;SDS011;9469;51.114;13.914;2022-10-31T21:04:28;34.37;;;15.20;;
18677;SDS011;9469;51.114;13.914;2022-10-31T21:09:35;21.90;;;14.07;;
18677;SDS011;9469;51.114;13.914;2022-10-31T21:14:40;23.07;;;14.97;;
18677;SDS011;9469;51.114;13.914;2022-10-31T21:19:47;23.93;;;13.70;;
18677;SDS011;9469;51.114;13.914;2022-10-31T21:24:52;22.57;;;12.70;;
18677;SDS011;9469;51.114;13.914;2022-10-31T21:29:57;19.13;;;11.50;;
18677;SDS011;9469;51.114;13.914;2022-10-31T21:35:07;17.63;;;12.10;;
18677;SDS011;9469;51.114;13.914;2022-10-31T21:40:16;22.57;;;12.47;;
18677;SDS011;9469;51.114;13.914;2022-10-31T21:45:21;24.00;;;13.00;;
18677;SDS011;9469;51.114;13.914;2022-10-31T21:50:28;21.73;;;11.67;;
18677;SDS011;9469;51.114;13.914;2022-10-31T21:55:37;22.17;;;12.33;;
18677;SDS011;9469;51.114;13.914;2022-10-31T22:00:44;18.77;;;12.87;;
18677;SDS011;9469;51.114;13.914;2022-10-31T22:05:54;20.20;;;12.67;;
18677;SDS011;9469;51.114;13.914;2022-10-31T22:11:01;24.00;;;12.73;;
18677;SDS011;9469;51.114;13.914;2022-10-31T22:16:14;25.67;;;13.03;;
18677;SDS011;9469;51.114;13.914;2022-10-31T22:21:23;22.47;;;13.83;;
18677;SDS011;9469;51.114;13.914;2022-10-31T22:26:29;25.43;;;15.13;;
18677;SDS011;9469;51.114;13.914;2022-10-31T22:31:36;27.27;;;16.67;;
18677;SDS011;9469;51.114;13.914;2022-10-31T22:36:45;23.10;;;16.90;;
18677;SDS011;9469;51.114;13.914;2022-10-31T22:41:50;30.40;;;18.87;;
18677;SDS011;9469;51.114;13.914;2022-10-31T22:46:55;36.30;;;20.10;;
18677;SDS011;9469;51.114;13.914;2022-10-31T22:52:09;32.00;;;21.70;;
18677;SDS011;9469;51.114;13.914;2022-10-31T22:57:30;38.60;;;24.33;;
18677;SDS011;9469;51.114;13.914;2022-10-31T23:02:34;36.87;;;26.17;;
18677;SDS011;9469;51.114;13.914;2022-10-31T23:07:42;41.73;;;28.40;;
18677;SDS011;9469;51.114;13.914;2022-10-31T23:12:47;47.87;;;31.63;;
18677;SDS011;9469;51.114;13.914;2022-10-31T23:18:04;51.77;;;32.03;;
18677;SDS011;9469;51.114;13.914;2022-10-31T23:23:34;45.00;;;31.67;;
18677;SDS011;9469;51.114;13.914;2022-10-31T23:28:40;49.27;;;30.57;;
18677;SDS011;9469;51.114;13.914;2022-10-31T23:33:44;47.73;;;30.97;;
18677;SDS011;9469;51.114;13.914;2022-10-31T23:38:52;54.77;;;32.33;;
18677;SDS011;9469;51.114;13.914;2022-10-31T23:43:57;50.67;;;32.40;;
18677;SDS011;9469;51.114;13.914;2022-10-31T23:49:02;47.47;;;30.63;;
18677;SDS011;9469;51.114;13.914;2022-10-31T23:54:09;52.70;;;30.57;;
18677;SDS011;9469;51.114;13.914;2022-10-31T23:59:14;49.10;;;30.83;;
